Time;durP1;ratioP1;P1;durP2;ratioP2;P2;SDS_P1;SDS_P2;PMS_P1;PMS_P2;Temp;Humidity;BMP_temperature;BMP_pressure;BME280_temperature;BME280_humidity;BME280_pressure;Samples;Min_cycle;Max_cycle;Signal;HPM_P1;HPM_P2
2021/08/24 00:01:05;;;;;;;39.13;5.53;;;;;;;23.22;48.91;103096.03;4992969;28;20519;-77
2021/08/24 00:03:31;;;;;;;59.95;7.43;;;;;;;23.17;49.30;103091.47;5005843;28;20054;-77
2021/08/24 00:05:57;;;;;;;57.22;6.15;;;;;;;23.19;49.19;103100.31;4994825;28;20514;-76
2021/08/24 00:08:22;;;;;;;71.90;7.85;;;;;;;23.16;49.08;103097.41;5012429;28;20026;-76
2021/08/24 00:10:52;;;;;;;27.17;5.07;;;;;;;23.16;49.31;103094.59;5012345;28;20037;-77
2021/08/24 00:13:19;;;;;;;31.95;5.47;;;;;;;23.16;49.44;103095.44;5012365;28;20038;-76
2021/08/24 00:15:45;;;;;;;16.00;4.80;;;;;;;23.22;49.12;103102.44;5012445;28;20096;-76
2021/08/24 00:18:12;;;;;;;30.25;5.85;;;;;;;23.28;49.31;103099.44;5012391;28;20026;-76
2021/08/24 00:20:39;;;;;;;40.33;7.78;;;;;;;23.32;49.22;103097.56;5012270;28;20077;-76
2021/08/24 00:23:08;;;;;;;24.17;5.20;;;;;;;23.33;49.39;103102.81;5012284;28;20550;-77
2021/08/24 00:25:35;;;;;;;33.33;6.63;;;;;;;23.37;49.22;103106.53;5012284;28;20431;-77
2021/08/24 00:28:01;;;;;;;31.67;5.82;;;;;;;23.39;49.02;103108.97;5012323;28;20048;-76
2021/08/24 00:30:26;;;;;;;35.85;5.18;;;;;;;23.39;49.26;103115.38;4994593;28;20026;-76
2021/08/24 00:32:52;;;;;;;33.25;5.93;;;;;;;23.35;49.33;103105.25;5012271;28;20029;-78
2021/08/24 00:35:18;;;;;;;25.48;5.07;;;;;;;23.37;49.23;103114.09;5012198;28;20026;-77
2021/08/24 00:37:43;;;;;;;44.15;6.88;;;;;;;23.34;49.50;103112.78;5012212;28;20392;-76
2021/08/24 00:40:11;;;;;;;36.40;5.32;;;;;;;23.34;49.65;103111.97;5012115;28;20064;-76
2021/08/24 00:42:37;;;;;;;44.38;5.68;;;;;;;23.42;49.71;103106.31;5012082;28;20391;-76
2021/08/24 00:45:08;;;;;;;46.17;6.93;;;;;;;23.35;49.92;103113.59;5015565;28;20464;-76
2021/08/24 00:47:37;;;;;;;25.67;5.63;;;;;;;23.40;49.72;103105.03;5015540;28;20056;-76
2021/08/24 00:50:34;;;;;;;30.58;4.97;;;;;;;23.38;49.69;103107.38;5015434;28;20025;-77
2021/08/24 00:53:03;;;;;;;41.70;7.07;;;;;;;23.35;49.49;103108.03;5003482;28;20471;-76
2021/08/24 00:55:31;;;;;;;69.72;9.73;;;;;;;23.39;49.63;103114.56;5015398;28;20372;-76
2021/08/24 00:58:00;;;;;;;62.08;7.70;;;;;;;23.42;49.87;103116.66;5015267;28;20057;-76
2021/08/24 01:00:28;;;;;;;24.27;4.78;;;;;;;23.39;49.58;103111.78;5015305;28;20029;-76
2021/08/24 01:03:09;;;;;;;76.32;8.70;;;;;;;23.42;49.61;103113.88;5015052;28;20069;-77
2021/08/24 01:05:39;;;;;;;34.10;3.65;;;;;;;23.45;49.76;103107.63;5015274;28;20061;-76
2021/08/24 01:08:22;;;;;;;35.00;4.50;;;;;;;23.47;49.89;103108.91;5015211;28;20033;-76
2021/08/24 01:11:04;;;;;;;51.78;5.28;;;;;;;23.50;49.62;103110.16;5015138;28;20041;-76
2021/08/24 01:13:35;;;;;;;59.67;5.38;;;;;;;23.59;49.55;103107.31;5015088;28;20088;-77
2021/08/24 01:16:24;;;;;;;86.68;7.47;;;;;;;23.61;49.69;103108.63;5015036;28;20044;-77
2021/08/24 01:19:04;;;;;;;38.80;4.10;;;;;;;23.66;49.79;103105.63;5014945;28;20030;-77
2021/08/24 01:21:38;;;;;;;31.02;4.80;;;;;;;23.63;49.51;103103.50;5014968;28;20579;-77
2021/08/24 01:24:16;;;;;;;14.30;3.13;;;;;;;23.59;49.92;103110.09;5014928;28;20038;-76
2021/08/24 01:27:00;;;;;;;45.75;5.38;;;;;;;23.67;49.64;103103.63;5014729;28;20034;-77
2021/08/24 01:29:57;;;;;;;54.33;5.13;;;;;;;23.61;49.67;103102.22;5014821;28;20044;-77
2021/08/24 01:32:47;;;;;;;47.55;4.43;;;;;;;23.64;49.97;103102.34;5014756;28;20038;-77
2021/08/24 01:35:49;;;;;;;34.58;3.83;;;;;;;23.65;49.78;103098.38;5014658;28;20084;-76
2021/08/24 01:38:20;;;;;;;33.50;4.68;;;;;;;23.61;50.12;103100.25;5014503;28;20377;-77
2021/08/24 01:41:17;;;;;;;46.25;4.97;;;;;;;23.62;50.22;103095.47;5014527;28;20060;-77
2021/08/24 01:44:10;;;;;;;29.63;5.55;;;;;;;23.64;50.02;103095.94;5010075;28;20449;-77
2021/08/24 01:46:41;;;;;;;34.03;5.38;;;;;;;23.74;49.77;103095.50;5014483;28;20487;-76
2021/08/24 01:49:07;;;;;;;56.53;5.78;;;;;;;23.78;49.51;103094.44;5014393;28;20064;-76
2021/08/24 01:51:41;;;;;;;43.70;6.03;;;;;;;23.76;49.95;103087.59;5014289;28;20029;-76
2021/08/24 01:54:28;;;;;;;64.85;6.57;;;;;;;23.74;50.13;103090.75;5014041;28;20079;-77
2021/08/24 01:56:55;;;;;;;41.70;4.68;;;;;;;23.69;50.14;103085.38;5014236;28;20080;-77
2021/08/24 01:59:39;;;;;;;35.50;5.68;;;;;;;23.63;50.61;103078.38;5014153;28;20117;-77
2021/08/24 02:02:13;;;;;;;51.10;5.60;;;;;;;23.63;50.76;103086.75;5014098;28;20038;-77
2021/08/24 02:05:04;;;;;;;39.03;5.35;;;;;;;23.64;50.50;103085.59;4994529;28;20066;-78
2021/08/24 02:07:33;;;;;;;41.60;6.18;;;;;;;23.64;50.49;103091.16;4993191;28;20034;-76
2021/08/24 02:10:03;;;;;;;98.43;13.45;;;;;;;23.68;50.61;103094.91;4994391;28;20396;-77
2021/08/24 02:12:34;;;;;;;23.58;4.60;;;;;;;23.68;50.39;103088.50;4994437;28;20026;-77
2021/08/24 02:15:02;;;;;;;21.48;5.18;;;;;;;23.70;50.64;103095.38;4994319;28;20030;-76
2021/08/24 02:17:31;;;;;;;53.33;7.95;;;;;;;23.75;50.43;103081.19;4994231;28;20027;-76
2021/08/24 02:20:29;;;;;;;35.33;5.68;;;;;;;23.79;50.41;103076.53;4994212;28;20037;-76
2021/08/24 02:23:00;;;;;;;58.72;7.78;;;;;;;23.83;50.38;103078.66;4985300;28;20132;-77
2021/08/24 02:25:32;;;;;;;42.28;5.45;;;;;;;23.80;50.49;103086.56;4994166;28;20026;-77
2021/08/24 02:28:06;;;;;;;43.83;5.57;;;;;;;23.83;50.65;103089.81;4994178;28;20034;-76
2021/08/24 02:30:38;;;;;;;70.63;8.00;;;;;;;23.76;50.60;103093.19;4994127;28;20113;-76
2021/08/24 02:33:05;;;;;;;70.82;7.90;;;;;;;23.84;50.32;103085.84;5001729;28;20021;-77
2021/08/24 02:36:00;;;;;;;62.08;7.55;;;;;;;23.80;50.66;103083.78;5013468;28;20022;-77
2021/08/24 02:38:29;;;;;;;27.20;5.00;;;;;;;23.79;50.76;103092.47;5013112;28;20041;-76
2021/08/24 02:41:18;;;;;;;86.57;8.32;;;;;;;23.82;50.62;103096.56;5013452;28;20059;-78
2021/08/24 02:44:12;;;;;;;39.55;4.43;;;;;;;23.76;50.56;103091.19;5013453;28;20029;-78
2021/08/24 02:46:46;;;;;;;84.03;8.35;;;;;;;23.77;50.36;103094.81;5013432;28;20091;-76
2021/08/24 02:49:19;;;;;;;64.38;7.35;;;;;;;23.75;50.85;103095.16;5012774;28;20668;-76
2021/08/24 02:51:48;;;;;;;66.57;8.30;;;;;;;23.67;50.96;103096.06;5011896;28;20033;-77
2021/08/24 02:54:22;;;;;;;89.50;10.80;;;;;;;23.68;51.10;103088.50;5012918;28;20022;-77
2021/08/24 02:56:47;;;;;;;52.20;7.28;;;;;;;23.75;50.72;103085.97;5012398;28;20084;-77
2021/08/24 02:59:13;;;;;;;73.15;8.35;;;;;;;23.78;50.91;103083.28;5013109;28;20029;-77
2021/08/24 03:01:40;;;;;;;40.85;6.63;;;;;;;23.75;51.07;103085.97;5013155;28;20393;-77
2021/08/24 03:04:08;;;;;;;50.55;8.25;;;;;;;23.72;51.25;103090.25;5028895;28;20587;-77
2021/08/24 03:06:41;;;;;;;49.25;6.85;;;;;;;23.67;51.16;103086.88;5032026;28;20025;-78
2021/08/24 03:09:10;;;;;;;47.40;7.32;;;;;;;23.74;51.18;103087.94;5032591;28;20053;-78
2021/08/24 03:11:44;;;;;;;29.05;5.80;;;;;;;23.69;50.85;103096.53;5032578;28;20025;-77
2021/08/24 03:14:25;;;;;;;39.92;7.47;;;;;;;23.68;50.87;103088.50;5032736;28;20022;-77
2021/08/24 03:16:57;;;;;;;38.35;6.45;;;;;;;23.67;50.88;103084.09;5032703;28;20017;-77
2021/08/24 03:19:29;;;;;;;37.00;6.25;;;;;;;23.62;50.90;103093.50;5032573;28;20056;-77
2021/08/24 03:21:58;;;;;;;29.63;7.25;;;;;;;23.58;50.98;103080.53;5032545;28;20065;-78
2021/08/24 03:24:24;;;;;;;49.80;7.32;;;;;;;23.56;50.80;103080.88;5032558;28;20045;-78
2021/08/24 03:26:50;;;;;;;32.20;5.63;;;;;;;23.57;50.84;103081.69;5032537;28;20056;-78
2021/08/24 03:29:19;;;;;;;45.08;7.00;;;;;;;23.57;50.79;103082.50;5032418;28;20038;-77
2021/08/24 03:31:51;;;;;;;31.67;7.90;;;;;;;23.61;50.85;103077.91;5032466;28;20060;-77
2021/08/24 03:34:17;;;;;;;39.38;6.45;;;;;;;23.61;51.25;103068.72;5032429;28;20446;-77
2021/08/24 03:36:43;;;;;;;23.15;5.80;;;;;;;23.53;51.15;103071.25;5032419;28;20087;-77
2021/08/24 03:39:09;;;;;;;39.33;7.78;;;;;;;23.58;51.46;103072.16;5032342;28;20476;-77
2021/08/24 03:41:34;;;;;;;34.78;5.30;;;;;;;23.60;51.14;103070.72;5032308;28;20399;-77
2021/08/24 03:44:00;;;;;;;22.88;5.45;;;;;;;23.56;51.48;103064.16;5032287;28;20028;-76
2021/08/24 03:46:26;;;;;;;38.92;7.93;;;;;;;23.59;51.48;103065.44;5032302;28;20474;-77
2021/08/24 03:48:52;;;;;;;15.82;5.18;;;;;;;23.58;51.19;103061.00;5032311;28;20025;-77
2021/08/24 03:51:17;;;;;;;20.63;5.10;;;;;;;23.54;51.54;103056.13;5032249;28;20091;-76
2021/08/24 03:53:43;;;;;;;20.75;5.55;;;;;;;23.55;51.31;103045.78;5032267;28;20361;-77
2021/08/24 03:56:08;;;;;;;24.23;6.03;;;;;;;23.56;51.32;103052.19;5032290;28;20021;-77
2021/08/24 03:58:35;;;;;;;32.67;6.32;;;;;;;23.53;51.46;103060.09;5032098;28;20026;-76
2021/08/24 04:01:02;;;;;;;26.05;5.72;;;;;;;23.56;51.50;103052.19;5014496;28;20037;-77
2021/08/24 04:03:28;;;;;;;33.70;6.50;;;;;;;23.59;51.50;103054.28;5031730;28;20049;-77
2021/08/24 04:06:01;;;;;;;27.02;6.28;;;;;;;23.53;51.34;103059.28;5032129;28;20040;-77
2021/08/24 04:08:27;;;;;;;21.45;5.60;;;;;;;23.53;51.34;103054.50;5032099;28;20542;-77
2021/08/24 04:10:53;;;;;;;21.58;5.28;;;;;;;23.52;51.28;103058.47;5032114;28;20036;-77
2021/08/24 04:13:18;;;;;;;20.20;5.75;;;;;;;23.60;51.21;103062.34;5032057;28;20384;-77
2021/08/24 04:15:44;;;;;;;21.65;5.65;;;;;;;23.60;51.20;103065.13;5031531;28;20104;-78
2021/08/24 04:18:09;;;;;;;49.47;7.80;;;;;;;23.56;51.55;103054.97;5033442;28;20483;-77
2021/08/24 04:20:35;;;;;;;32.38;6.88;;;;;;;23.59;51.23;103063.47;5035846;28;20026;-76
2021/08/24 04:23:01;;;;;;;38.60;7.43;;;;;;;23.63;51.00;103058.84;5035879;28;20503;-77
2021/08/24 04:25:27;;;;;;;34.58;7.63;;;;;;;23.58;51.49;103056.25;5035710;28;20074;-77
2021/08/24 04:27:52;;;;;;;33.53;12.27;;;;;;;23.55;51.58;103059.72;5035774;28;20116;-77
2021/08/24 04:30:18;;;;;;;43.35;8.32;;;;;;;23.62;51.60;103062.00;5035612;28;20022;-77
2021/08/24 04:32:46;;;;;;;57.90;8.38;;;;;;;23.53;51.69;103060.09;5035652;28;20025;-77
2021/08/24 04:35:14;;;;;;;40.15;7.93;;;;;;;23.49;51.63;103064.72;5035595;28;20032;-77
2021/08/24 04:37:39;;;;;;;34.45;8.55;;;;;;;23.52;51.53;103064.03;5035444;28;20384;-77
2021/08/24 04:40:06;;;;;;;49.13;10.05;;;;;;;23.48;51.87;103065.06;5035465;28;20033;-77
2021/08/24 04:42:32;;;;;;;43.08;9.18;;;;;;;23.50;51.54;103060.78;5035414;28;20505;-77
2021/08/24 04:44:58;;;;;;;60.25;11.18;;;;;;;23.51;51.67;103064.38;5035302;28;20622;-77
2021/08/24 04:47:24;;;;;;;60.35;11.27;;;;;;;23.51;52.00;103058.81;5035306;28;20172;-77
2021/08/24 04:49:50;;;;;;;37.78;11.02;;;;;;;23.49;52.11;103064.72;5035272;28;20140;-77
2021/08/24 04:52:15;;;;;;;49.70;11.13;;;;;;;23.51;52.09;103067.19;5035167;28;20021;-77
2021/08/24 04:54:41;;;;;;;43.35;11.20;;;;;;;23.52;51.99;103061.25;5035199;28;20412;-78
2021/08/24 04:57:07;;;;;;;62.45;12.50;;;;;;;23.56;52.13;103066.94;5035113;28;20025;-78
2021/08/24 04:59:33;;;;;;;72.13;15.80;;;;;;;23.52;51.94;103061.25;5034951;28;20388;-77
2021/08/24 05:01:59;;;;;;;80.95;16.27;;;;;;;23.57;52.00;103064.97;5035049;28;20021;-77
2021/08/24 05:04:25;;;;;;;54.58;15.07;;;;;;;23.58;52.40;103053.47;5034762;28;20410;-77
2021/08/24 05:06:52;;;;;;;91.90;19.20;;;;;;;23.62;52.39;103056.41;5034984;28;20041;-77
2021/08/24 05:09:18;;;;;;;84.05;18.48;;;;;;;23.66;52.07;103054.56;5034929;28;20029;-77
2021/08/24 05:11:44;;;;;;;90.80;23.17;;;;;;;23.66;52.56;103062.94;5034821;28;20144;-78
2021/08/24 05:14:10;;;;;;;95.25;24.58;;;;;;;23.72;52.42;103056.75;5034885;28;20044;-77
2021/08/24 05:16:36;;;;;;;109.47;29.42;;;;;;;23.78;52.11;103060.94;5034737;28;20033;-78
2021/08/24 05:19:02;;;;;;;136.20;34.85;;;;;;;23.78;52.29;103062.94;5034660;28;20029;-77
2021/08/24 05:21:27;;;;;;;148.23;36.75;;;;;;;23.87;52.29;103065.59;5034667;28;20029;-75
2021/08/24 05:23:53;;;;;;;124.55;37.25;;;;;;;23.92;52.26;103070.97;5034553;28;20032;-76
2021/08/24 05:26:20;;;;;;;98.30;34.63;;;;;;;23.83;52.97;103068.28;5034458;28;20029;-79
2021/08/24 05:28:47;;;;;;;87.68;36.55;;;;;;;23.86;53.01;103075.16;5033765;28;20460;-77
2021/08/24 05:31:13;;;;;;;129.10;39.63;;;;;;;23.94;52.73;103071.44;5016708;28;20029;-76
2021/08/24 05:33:40;;;;;;;137.50;37.63;;;;;;;23.96;52.81;103064.34;5016655;28;20495;-76
2021/08/24 05:36:06;;;;;;;145.35;39.30;;;;;;;23.94;53.15;103072.25;5034395;28;20109;-77
2021/08/24 05:38:33;;;;;;;94.55;35.17;;;;;;;23.88;53.41;103064.44;5034279;28;20528;-77
2021/08/24 05:40:59;;;;;;;121.07;37.25;;;;;;;23.89;52.87;103066.09;5034399;28;20022;-76
2021/08/24 05:43:26;;;;;;;119.28;37.05;;;;;;;23.85;53.37;103065.97;5034225;28;20610;-76
2021/08/24 05:46:04;;;;;;;116.70;34.00;;;;;;;23.76;53.69;103074.44;5034208;28;20029;-77
2021/08/24 05:48:31;;;;;;;106.30;33.03;;;;;;;23.72;53.77;103072.69;5034263;28;20017;-77
2021/08/24 05:50:57;;;;;;;105.25;30.90;;;;;;;23.71;53.86;103068.28;5016311;28;20502;-78
2021/08/24 05:53:23;;;;;;;95.25;30.92;;;;;;;23.78;53.79;103072.13;5016236;28;20051;-77
2021/08/24 05:55:49;;;;;;;123.95;34.58;;;;;;;23.89;53.29;103066.09;5034062;28;20423;-78
2021/08/24 05:58:15;;;;;;;87.05;29.38;;;;;;;24.02;52.49;103076.91;5033932;28;20040;-77
2021/08/24 06:00:41;;;;;;;129.30;32.40;;;;;;;24.01;52.72;103072.47;5033496;28;20036;-78
2021/08/24 06:03:07;;;;;;;112.22;28.92;;;;;;;23.81;53.27;103076.22;5033432;28;20404;-76
2021/08/24 06:05:37;;;;;;;80.70;29.70;;;;;;;23.75;53.66;103089.56;5033898;28;20032;-75
2021/08/24 06:08:04;;;;;;;150.68;38.35;;;;;;;23.74;53.60;103087.94;5016150;28;20022;-76
2021/08/24 06:10:29;;;;;;;112.60;34.13;;;;;;;23.67;54.03;103086.88;5033824;28;20021;-77
2021/08/24 06:12:55;;;;;;;131.63;37.35;;;;;;;23.83;53.42;103087.03;5033766;28;20472;-76
2021/08/24 06:15:21;;;;;;;153.80;40.80;;;;;;;23.86;53.36;103083.53;5033732;28;20075;-76
2021/08/24 06:17:47;;;;;;;93.13;34.55;;;;;;;23.76;53.94;103076.44;5033529;28;20037;-76
2021/08/24 06:20:13;;;;;;;82.20;36.20;;;;;;;23.72;53.91;103084.66;5033650;28;20021;-77
2021/08/24 06:22:39;;;;;;;83.15;35.53;;;;;;;23.81;54.05;103081.78;5033569;28;20080;-77
2021/08/24 06:25:05;;;;;;;75.28;32.72;;;;;;;23.81;53.80;103076.22;5033555;28;20037;-77
2021/08/24 06:27:30;;;;;;;56.50;29.58;;;;;;;23.86;53.72;103084.34;5033521;28;20411;-78
2021/08/24 06:29:56;;;;;;;81.63;34.72;;;;;;;23.94;53.99;103090.97;5033500;28;20423;-78
2021/08/24 06:32:31;;;;;;;73.13;30.23;;;;;;;23.98;53.90;103077.97;5033279;28;20048;-78
2021/08/24 06:34:58;;;;;;;56.15;27.60;;;;;;;23.93;53.89;103086.56;5015397;28;20124;-77
2021/08/24 06:37:23;;;;;;;62.85;30.33;;;;;;;24.02;53.59;103081.66;5015479;28;20029;-77
2021/08/24 06:39:49;;;;;;;47.55;25.50;;;;;;;23.96;53.84;103075.53;5033137;28;20030;-76
2021/08/24 06:42:14;;;;;;;54.40;27.00;;;;;;;23.98;53.96;103078.78;5032435;28;20507;-77
2021/08/24 06:44:40;;;;;;;45.38;25.10;;;;;;;24.06;54.00;103083.41;5033215;28;20029;-78
2021/08/24 06:47:06;;;;;;;46.20;24.67;;;;;;;24.02;54.22;103076.91;5033114;28;20033;-76
2021/08/24 06:49:31;;;;;;;42.47;25.20;;;;;;;23.96;54.63;103077.50;5033165;28;20408;-78
2021/08/24 06:51:59;;;;;;;46.35;25.08;;;;;;;23.99;54.13;103083.19;5033023;28;20460;-77
2021/08/24 06:54:25;;;;;;;49.05;22.63;;;;;;;23.99;54.51;103077.59;5033094;28;20033;-77
2021/08/24 06:56:51;;;;;;;40.30;20.85;;;;;;;24.00;54.53;103092.38;5033008;28;20472;-77
2021/08/24 06:59:17;;;;;;;38.13;21.80;;;;;;;24.07;54.20;103089.81;5032956;28;20124;-77
2021/08/24 07:01:43;;;;;;;29.88;18.55;;;;;;;24.17;54.12;103091.31;5032955;28;20392;-78
2021/08/24 07:04:09;;;;;;;32.10;19.65;;;;;;;24.28;53.93;103078.53;5032772;28;20052;-77
2021/08/24 07:06:35;;;;;;;32.58;19.95;;;;;;;24.24;53.99;103088.75;5014960;28;20083;-78
2021/08/24 07:09:00;;;;;;;29.73;18.30;;;;;;;24.27;53.83;103085.28;5031522;28;20072;-78
2021/08/24 07:11:26;;;;;;;39.20;20.15;;;;;;;24.24;54.20;103084.00;5032830;28;20431;-77
2021/08/24 07:14:03;;;;;;;36.45;20.05;;;;;;;24.35;53.87;103084.38;5029514;28;20064;-78
2021/08/24 07:16:29;;;;;;;31.55;18.98;;;;;;;24.39;54.27;103081.69;5030599;28;20109;-78
2021/08/24 07:18:56;;;;;;;37.28;21.13;;;;;;;24.45;54.02;103088.66;5032568;28;20119;-77
2021/08/24 07:21:23;;;;;;;33.92;21.08;;;;;;;24.49;54.00;103084.00;5032866;28;20029;-77
2021/08/24 07:23:49;;;;;;;35.67;19.45;;;;;;;24.55;54.08;103079.78;5032673;28;20385;-77
2021/08/24 07:26:16;;;;;;;37.35;20.38;;;;;;;24.65;53.91;103084.91;5025509;28;20480;-77
2021/08/24 07:28:42;;;;;;;36.95;21.33;;;;;;;24.75;53.47;103092.78;5031314;28;20072;-78
2021/08/24 07:31:08;;;;;;;38.55;21.45;;;;;;;24.83;53.28;103091.81;5032732;28;20029;-78
2021/08/24 07:33:34;;;;;;;34.10;20.52;;;;;;;24.85;53.19;103097.88;5032559;28;20368;-78
2021/08/24 07:36:00;;;;;;;30.85;20.10;;;;;;;24.78;53.32;103094.84;5032447;28;20028;-77
2021/08/24 07:38:26;;;;;;;31.05;19.17;;;;;;;24.85;53.55;103100.66;5032250;28;20108;-77
2021/08/24 07:40:52;;;;;;;34.30;19.77;;;;;;;24.84;53.21;103096.25;5032426;28;20072;-77
2021/08/24 07:43:18;;;;;;;41.17;21.33;;;;;;;24.83;53.29;103108.59;5014671;28;20083;-76
2021/08/24 07:45:45;;;;;;;36.03;20.10;;;;;;;24.87;53.62;103098.34;5032217;28;20400;-77
2021/08/24 07:48:11;;;;;;;36.22;20.35;;;;;;;24.84;53.45;103092.63;5032394;28;20030;-77
2021/08/24 07:50:37;;;;;;;37.33;22.33;;;;;;;24.92;53.25;103097.25;5032245;28;20487;-78
2021/08/24 07:53:03;;;;;;;35.17;21.02;;;;;;;24.96;53.33;103103.78;5034715;28;20037;-78
2021/08/24 07:55:29;;;;;;;40.13;21.98;;;;;;;25.13;53.14;103108.28;5036330;28;20033;-77
2021/08/24 07:57:54;;;;;;;37.17;22.25;;;;;;;25.15;53.13;103103.16;5036149;28;20033;-77
2021/08/24 08:00:20;;;;;;;32.13;20.02;;;;;;;25.23;52.88;103106.97;5036321;28;20145;-75
2021/08/24 08:02:46;;;;;;;40.05;20.98;;;;;;;25.18;53.14;103105.25;5035775;28;20503;-76
2021/08/24 08:05:13;;;;;;;37.25;22.13;;;;;;;25.33;52.72;103112.06;5036205;28;20022;-76
2021/08/24 08:07:38;;;;;;;29.80;19.88;;;;;;;25.36;52.63;103112.16;5036240;28;20383;-80
2021/08/24 08:10:05;;;;;;;33.28;19.95;;;;;;;25.39;52.48;103105.00;5035731;28;20026;-78
2021/08/24 08:12:31;;;;;;;29.23;18.52;;;;;;;25.24;52.99;103103.81;5036320;28;20447;-78
2021/08/24 08:14:56;;;;;;;28.40;18.85;;;;;;;25.32;53.03;103111.25;5036017;28;20100;-78
2021/08/24 08:17:22;;;;;;;28.20;19.55;;;;;;;25.38;53.16;103109.78;5051421;28;20035;-77
2021/08/24 08:19:48;;;;;;;25.95;17.60;;;;;;;25.45;53.20;103109.19;5035898;28;20029;-80
2021/08/24 08:22:14;;;;;;;28.70;18.30;;;;;;;25.56;53.37;103113.09;5018192;28;20079;-74
2021/08/24 08:24:41;;;;;;;27.50;17.42;;;;;;;25.63;53.10;103115.28;5035963;28;20031;-83
2021/08/24 08:27:07;;;;;;;25.15;17.88;;;;;;;25.73;52.96;103118.38;5036069;28;20029;-81
2021/08/24 08:29:33;;;;;;;25.70;18.45;;;;;;;25.83;52.71;103107.81;5036069;28;20084;-81
2021/08/24 08:32:08;;;;;;;21.10;15.98;;;;;;;25.84;52.47;103126.22;5017961;28;20497;-81
2021/08/24 08:34:34;;;;;;;28.38;16.90;;;;;;;25.87;52.73;103126.34;5035982;28;20513;-79
2021/08/24 08:36:59;;;;;;;21.50;16.83;;;;;;;25.87;52.36;103125.53;5018527;28;20025;-79
2021/08/24 08:39:25;;;;;;;23.58;15.73;;;;;;;25.85;52.82;103123.09;5036021;28;20112;-83
2021/08/24 08:42:04;;;;;;;25.15;16.17;;;;;;;25.94;52.77;103129.31;5017937;28;20026;-78
2021/08/24 08:44:29;;;;;;;19.43;14.03;;;;;;;26.07;52.47;103129.22;5035647;28;20369;-79
2021/08/24 08:47:24;;;;;;;17.02;13.18;;;;;;;26.07;52.35;103132.84;5017807;28;20088;-79
2021/08/24 08:50:01;;;;;;;22.83;14.27;;;;;;;26.17;51.97;103131.47;5012149;28;20044;-79
2021/08/24 08:52:55;;;;;;;18.83;13.82;;;;;;;26.18;51.51;103124.69;5035319;28;20053;-79
2021/08/24 08:55:45;;;;;;;21.52;14.20;;;;;;;26.27;51.51;103130.91;5035520;28;20051;-79
2021/08/24 08:58:39;;;;;;;20.25;14.07;;;;;;;26.47;51.23;103124.22;5017609;28;20029;-86
2021/08/24 09:01:42;;;;;;;16.05;12.90;;;;;;;26.50;51.05;103131.09;5035324;28;20035;-79
2021/08/24 09:04:37;;;;;;;20.08;14.40;;;;;;;26.50;51.02;103131.09;5034044;28;20053;-78
2021/08/24 09:07:11;;;;;;;18.23;11.52;;;;;;;26.62;50.54;103144.19;5016850;28;20025;-79
2021/08/24 09:09:38;;;;;;;15.02;12.75;;;;;;;26.59;50.73;103139.28;5017336;28;20053;-78
2021/08/24 09:12:06;;;;;;;24.98;14.35;;;;;;;26.58;50.72;103141.28;5034942;28;20049;-80
2021/08/24 09:14:45;;;;;;;20.17;14.13;;;;;;;26.69;50.49;103141.53;5033557;28;20053;-78
2021/08/24 09:17:17;;;;;;;17.97;13.03;;;;;;;26.73;50.22;103145.22;5032418;28;20101;-84
2021/08/24 09:20:14;;;;;;;19.95;13.63;;;;;;;26.63;49.97;103143.00;5034751;28;20391;-78
2021/08/24 09:22:40;;;;;;;21.10;13.55;;;;;;;26.69;49.95;103149.94;5017139;28;20108;-78
2021/08/24 09:25:29;;;;;;;17.48;12.23;;;;;;;26.73;49.77;103148.84;5016980;28;20025;-78
2021/08/24 09:28:14;;;;;;;19.48;13.32;;;;;;;26.82;49.67;103162.66;5016189;28;20033;-81
2021/08/24 09:30:43;;;;;;;20.45;13.52;;;;;;;26.86;49.68;103149.53;5033430;28;20022;-78
2021/08/24 09:33:10;;;;;;;21.90;13.30;;;;;;;26.94;49.42;103156.91;5032908;28;20032;-79
2021/08/24 09:35:47;;;;;;;26.52;16.63;;;;;;;26.95;49.15;103157.72;5014899;28;20038;-80
2021/08/24 09:38:21;;;;;;;19.63;14.57;;;;;;;27.00;49.21;103155.44;5033341;28;20033;-78
2021/08/24 09:40:50;;;;;;;20.42;13.73;;;;;;;27.00;49.15;103163.88;5033464;28;20025;-79
2021/08/24 09:43:35;;;;;;;20.90;15.32;;;;;;;26.98;49.32;103157.81;5016487;28;20639;-78
2021/08/24 09:46:22;;;;;;;19.95;14.07;;;;;;;26.99;48.89;103165.03;5032021;28;20549;-79
2021/08/24 09:49:00;;;;;;;42.70;16.77;;;;;;;27.19;48.93;103165.06;5034637;28;20025;-78
2021/08/24 09:51:36;;;;;;;21.63;13.85;;;;;;;27.29;48.49;103156.06;5034344;28;20021;-78
2021/08/24 09:54:06;;;;;;;21.52;15.13;;;;;;;27.36;48.12;103156.22;5034282;28;20017;-79
2021/08/24 09:56:37;;;;;;;22.20;14.57;;;;;;;27.42;48.03;103160.31;5034416;28;20025;-81
2021/08/24 09:59:03;;;;;;;20.42;14.60;;;;;;;27.50;47.89;103156.47;5032890;28;20029;-78
2021/08/24 10:01:50;;;;;;;21.75;14.48;;;;;;;27.47;47.83;103168.44;5034258;28;20033;-78
2021/08/24 10:04:16;;;;;;;24.20;14.48;;;;;;;27.60;47.61;103157.88;5033861;28;20057;-78
2021/08/24 10:07:06;;;;;;;19.85;14.15;;;;;;;27.60;47.40;103155.06;5034069;28;20033;-84
2021/08/24 10:09:38;;;;;;;25.38;16.40;;;;;;;27.66;47.38;103159.19;5033933;28;20025;-77
2021/08/24 10:12:26;;;;;;;44.25;17.83;;;;;;;27.82;47.24;103156.31;5033901;28;20446;-77
2021/08/24 10:14:53;;;;;;;24.17;16.60;;;;;;;27.83;47.02;103157.94;5031807;28;20029;-78
2021/08/24 10:17:26;;;;;;;28.05;17.45;;;;;;;27.74;47.08;103162.97;5000113;28;20021;-78
2021/08/24 10:19:52;;;;;;;21.60;15.50;;;;;;;27.90;46.75;103160.88;5017663;28;20040;-78
2021/08/24 10:22:29;;;;;;;22.27;15.90;;;;;;;28.01;46.04;103159.03;4999872;28;20030;-77
2021/08/24 10:25:09;;;;;;;26.30;16.55;;;;;;;28.11;46.24;103166.84;5018364;28;20029;-78
2021/08/24 10:27:41;;;;;;;27.00;16.60;;;;;;;28.04;46.19;103163.91;5017504;28;20113;-78
2021/08/24 10:30:13;;;;;;;26.08;18.15;;;;;;;28.09;45.98;103172.03;5017855;28;20045;-77
2021/08/24 10:32:46;;;;;;;26.85;18.85;;;;;;;28.07;45.94;103171.59;5017866;28;20037;-79
2021/08/24 10:35:22;;;;;;;23.63;17.08;;;;;;;28.04;45.73;103171.53;4999446;28;20120;-78
2021/08/24 10:37:49;;;;;;;33.17;17.00;;;;;;;27.99;46.16;103172.66;4999753;28;20531;-78
2021/08/24 10:40:18;;;;;;;26.75;16.35;;;;;;;27.96;45.75;103164.97;5016831;28;21181;-79
2021/08/24 10:43:02;;;;;;;22.13;14.77;;;;;;;28.10;45.54;103168.00;5022053;28;20372;-77
2021/08/24 10:45:35;;;;;;;25.42;15.77;;;;;;;28.18;45.40;103164.13;5022623;28;20021;-77
2021/08/24 10:48:08;;;;;;;23.58;15.38;;;;;;;28.20;45.37;103160.97;5016823;28;20540;-77
2021/08/24 10:51:09;;;;;;;18.70;15.30;;;;;;;28.09;45.22;103159.97;5017298;28;20038;-78
2021/08/24 10:53:55;;;;;;;20.45;14.32;;;;;;;28.27;44.67;103161.09;4994169;28;20060;-77
2021/08/24 10:56:28;;;;;;;19.33;14.55;;;;;;;28.31;44.80;103158.34;5017416;28;20033;-77
2021/08/24 10:59:26;;;;;;;26.60;17.75;;;;;;;28.27;44.58;103157.47;5017217;28;20064;-77
2021/08/24 11:02:13;;;;;;;36.97;17.70;;;;;;;28.05;45.17;103150.69;4976173;28;20497;-77
2021/08/24 11:04:53;;;;;;;25.77;16.92;;;;;;;28.35;44.96;103145.16;5016433;28;20055;-77
2021/08/24 11:07:36;;;;;;;21.55;14.07;;;;;;;28.44;44.55;103151.34;5016755;28;20083;-78
2021/08/24 11:10:26;;;;;;;19.67;14.68;;;;;;;28.38;44.25;103144.41;4999767;28;20029;-78
2021/08/24 11:13:15;;;;;;;;;;;;;;;28.49;43.91;103145.38;5005567;28;20388;-78
2021/08/24 11:15:47;;;;;;;21.98;14.30;;;;;;;28.50;44.06;103144.19;5011023;28;19913;-90
2021/08/24 11:18:44;;;;;;;18.45;13.85;;;;;;;28.47;43.39;103137.31;5033022;28;20100;-75
2021/08/24 11:21:34;;;;;;;27.27;16.48;;;;;;;28.62;43.54;103148.78;5015817;28;20083;-79
2021/08/24 11:24:04;;;;;;;22.23;13.65;;;;;;;28.62;43.36;103143.16;4995342;28;20030;-79
2021/08/24 11:26:41;;;;;;;17.63;13.43;;;;;;;28.59;43.68;103144.72;4998166;28;20495;-77
2021/08/24 11:29:44;;;;;;;16.33;12.38;;;;;;;28.70;43.08;103145.66;4999017;28;20029;-81
2021/08/24 11:32:24;;;;;;;19.15;14.73;;;;;;;28.85;43.32;103141.06;5017675;28;20577;-80